createdAt,value
2018-02-22T00:01:27.636Z,46.03
2018-02-22T00:03:56.073Z,59.00
2018-02-22T00:06:24.301Z,53.38
2018-02-22T00:08:52.613Z,50.67
2018-02-22T00:11:20.897Z,52.40
2018-02-22T00:13:49.164Z,57.00
2018-02-22T00:16:17.367Z,45.70
2018-02-22T00:18:46.371Z,45.73
2018-02-22T00:21:14.708Z,45.88
2018-02-22T00:23:42.983Z,42.05
2018-02-22T00:26:11.222Z,48.17
2018-02-22T00:28:39.458Z,44.58
2018-02-22T00:31:08.479Z,50.33
2018-02-22T00:33:36.904Z,46.65
2018-02-22T00:36:05.179Z,45.78
2018-02-22T00:38:33.391Z,49.67
2018-02-22T00:41:01.672Z,47.10
2018-02-22T00:43:30.006Z,44.90
2018-02-22T00:45:58.284Z,45.58
2018-02-22T00:48:26.556Z,39.95
2018-02-22T00:50:54.783Z,39.30
2018-02-22T00:53:23.031Z,38.72
2018-02-22T00:55:52.044Z,38.53
2018-02-22T00:58:20.375Z,41.53
2018-02-22T01:00:48.687Z,44.35
2018-02-22T01:03:17.745Z,44.92
2018-02-22T01:05:45.949Z,43.13
2018-02-22T01:08:14.960Z,42.10
2018-02-22T01:10:43.203Z,46.67
2018-02-22T01:13:12.387Z,45.03
2018-02-22T01:15:40.627Z,42.05
2018-02-22T01:18:08.935Z,44.72
2018-02-22T01:20:37.211Z,45.10
2018-02-22T01:23:05.491Z,36.75
2018-02-22T01:25:33.864Z,37.20
2018-02-22T01:28:02.140Z,38.80
2018-02-22T01:30:30.425Z,42.00
2018-02-22T01:32:58.690Z,35.30
2018-02-22T01:35:26.965Z,38.30
2018-02-22T01:37:55.191Z,33.88
2018-02-22T01:40:23.518Z,38.72
2018-02-22T01:42:51.794Z,35.67
2018-02-22T01:45:20.070Z,34.42
2018-02-22T01:47:48.345Z,37.28
2018-02-22T01:50:16.571Z,34.35
2018-02-22T01:52:44.896Z,36.47
2018-02-22T01:55:13.088Z,37.33
2018-02-22T01:57:42.166Z,38.63
2018-02-22T02:00:10.440Z,39.45
2018-02-22T02:02:38.695Z,35.42
2018-02-22T02:05:06.920Z,41.60
2018-02-22T02:07:35.981Z,43.92
2018-02-22T02:10:04.194Z,36.22
2018-02-22T02:12:32.549Z,42.10
2018-02-22T02:15:00.808Z,40.47
2018-02-22T02:17:29.035Z,33.50
2018-02-22T02:19:57.360Z,31.97
2018-02-22T02:22:25.584Z,38.33
2018-02-22T02:24:53.844Z,35.72
2018-02-22T02:27:23.006Z,35.58
2018-02-22T02:29:51.232Z,34.65
2018-02-22T02:32:19.509Z,34.63
2018-02-22T02:34:47.833Z,30.13
2018-02-22T02:37:16.081Z,30.42
2018-02-22T02:39:44.323Z,30.55
2018-02-22T02:42:13.477Z,38.50
2018-02-22T02:44:41.698Z,34.67
2018-02-22T02:47:10.031Z,33.50
2018-02-22T02:49:39.022Z,35.50
2018-02-22T02:52:07.300Z,28.08
2018-02-22T02:54:35.573Z,35.78
2018-02-22T02:57:03.848Z,29.85
2018-02-22T02:59:32.044Z,37.25
2018-02-22T03:02:00.264Z,33.70
2018-02-22T03:04:28.508Z,32.60
2018-02-22T03:06:56.760Z,30.75
2018-02-22T03:09:25.121Z,34.97
2018-02-22T03:11:53.398Z,34.53
2018-02-22T03:14:21.619Z,35.75
2018-02-22T03:16:49.948Z,34.63
2018-02-22T03:19:18.151Z,30.80
2018-02-22T03:21:47.215Z,34.35
2018-02-22T03:24:15.431Z,39.03
2018-02-22T03:26:43.678Z,34.55
2018-02-22T03:29:11.943Z,35.67
2018-02-22T03:31:40.163Z,34.20
2018-02-22T03:34:08.407Z,37.10
2018-02-22T03:36:36.665Z,39.50
2018-02-22T03:39:04.940Z,37.50
2018-02-22T03:41:33.214Z,31.87
2018-02-22T03:44:01.596Z,36.60
2018-02-22T03:46:29.869Z,39.35
2018-02-22T03:48:58.095Z,37.20
2018-02-22T03:51:26.323Z,37.38
2018-02-22T03:53:54.564Z,38.85
2018-02-22T03:56:22.867Z,43.00
2018-02-22T03:58:51.143Z,43.63
2018-02-22T04:01:19.362Z,45.00
2018-02-22T04:03:47.598Z,39.50
2018-02-22T04:06:15.971Z,44.10
2018-02-22T04:08:44.184Z,45.17
2018-02-22T04:11:12.418Z,40.97
2018-02-22T04:13:40.711Z,60.03
2018-02-22T04:16:08.900Z,46.05
2018-02-22T04:18:37.147Z,44.53
2018-02-22T04:21:05.368Z,48.30
2018-02-22T04:23:33.614Z,48.17
2018-02-22T04:26:02.616Z,50.50
2018-02-22T04:28:31.638Z,50.40
2018-02-22T04:30:59.953Z,48.67
2018-02-22T04:33:28.167Z,53.40
2018-02-22T04:35:56.505Z,42.83
2018-02-22T04:38:24.783Z,46.47
2018-02-22T04:40:53.015Z,53.35
2018-02-22T04:43:21.332Z,49.20
2018-02-22T04:45:49.812Z,54.80
2018-02-22T04:48:18.091Z,53.75
2018-02-22T04:50:46.310Z,50.40
2018-02-22T04:53:14.658Z,51.35
2018-02-22T04:55:43.662Z,46.55
2018-02-22T04:58:12.671Z,47.65
2018-02-22T05:00:40.908Z,50.42
2018-02-22T05:03:09.181Z,51.33
2018-02-22T05:05:37.399Z,52.60
2018-02-22T05:08:05.737Z,44.10
2018-02-22T05:10:33.954Z,51.42
2018-02-22T05:13:02.288Z,42.85
2018-02-22T05:15:30.654Z,49.20
2018-02-22T05:17:58.848Z,56.80
2018-02-22T05:20:27.846Z,50.07
2018-02-22T05:22:56.205Z,50.30
2018-02-22T05:25:25.292Z,48.45
2018-02-22T05:27:53.567Z,50.53
2018-02-22T05:30:21.843Z,45.35
2018-02-22T05:32:50.120Z,44.50
2018-02-22T05:35:18.396Z,49.93
2018-02-22T05:37:46.671Z,43.25
2018-02-22T05:40:14.895Z,54.85
2018-02-22T05:42:43.221Z,51.30
2018-02-22T05:45:11.544Z,43.92
2018-02-22T05:47:39.815Z,58.63
2018-02-22T05:50:08.069Z,55.20
2018-02-22T05:52:36.322Z,57.45
2018-02-22T05:55:04.705Z,46.28
2018-02-22T05:57:32.912Z,48.45
2018-02-22T06:00:01.982Z,47.17
2018-02-22T06:02:30.252Z,43.38
2018-02-22T06:04:58.510Z,46.80
2018-02-22T06:07:26.731Z,43.70
2018-02-22T06:09:55.172Z,50.30
2018-02-22T06:12:23.392Z,46.95
2018-02-22T06:14:51.658Z,45.75
2018-02-22T06:17:20.718Z,43.70
2018-02-22T06:19:48.959Z,46.87
2018-02-22T06:22:17.268Z,44.33
2018-02-22T06:24:45.467Z,44.20
2018-02-22T06:27:14.467Z,45.38
2018-02-22T06:29:43.544Z,51.63
2018-02-22T06:32:11.806Z,43.90
2018-02-22T06:34:41.000Z,44.93
2018-02-22T06:37:09.320Z,40.90
2018-02-22T06:39:37.652Z,38.17
2018-02-22T06:42:05.900Z,45.38
2018-02-22T06:44:34.176Z,40.28
2018-02-22T06:47:02.492Z,46.60
2018-02-22T06:49:30.727Z,40.43
2018-02-22T06:51:59.030Z,46.35
2018-02-22T06:54:27.269Z,37.53
2018-02-22T06:56:55.535Z,45.75
2018-02-22T06:59:23.838Z,42.90
2018-02-22T07:01:52.132Z,41.75
2018-02-22T07:04:20.327Z,46.27
2018-02-22T07:06:48.702Z,42.13
2018-02-22T07:09:16.994Z,42.33
2018-02-22T07:11:46.296Z,41.83
2018-02-22T07:14:14.577Z,39.53
2018-02-22T07:16:42.851Z,41.55
2018-02-22T07:19:11.119Z,40.07
2018-02-22T07:21:39.346Z,41.65
2018-02-22T07:24:08.680Z,39.88
2018-02-22T07:26:36.899Z,43.67
2018-02-22T07:29:05.978Z,40.58
2018-02-22T07:31:34.283Z,37.88
2018-02-22T07:34:02.563Z,43.58
2018-02-22T07:36:31.558Z,42.17
2018-02-22T07:38:59.876Z,40.55
2018-02-22T07:41:28.387Z,38.53
2018-02-22T07:43:56.596Z,39.63
2018-02-22T07:46:24.946Z,38.72
2018-02-22T07:48:53.234Z,42.83
2018-02-22T07:51:21.513Z,39.60
2018-02-22T07:53:49.806Z,40.22
2018-02-22T07:56:18.036Z,44.25
2018-02-22T07:58:46.324Z,41.13
2018-02-22T08:01:14.554Z,41.05
2018-02-22T08:03:42.831Z,35.60
2018-02-22T08:06:11.056Z,38.83
2018-02-22T08:08:39.343Z,39.47
2018-02-22T08:11:08.409Z,44.45
2018-02-22T08:13:36.685Z,38.83
2018-02-22T08:16:04.963Z,39.70
2018-02-22T08:18:33.239Z,33.67
2018-02-22T08:21:01.544Z,43.78
2018-02-22T08:23:30.709Z,36.63
2018-02-22T08:25:58.954Z,43.92
2018-02-22T08:28:27.296Z,40.67
2018-02-22T08:30:55.602Z,39.40
2018-02-22T08:33:24.843Z,39.20
2018-02-22T08:35:53.119Z,37.20
2018-02-22T08:38:22.308Z,38.40
2018-02-22T08:40:50.539Z,48.65
2018-02-22T08:43:18.817Z,32.88
2018-02-22T08:45:47.096Z,44.15
2018-02-22T08:48:15.520Z,36.65
2018-02-22T08:50:43.750Z,42.40
2018-02-22T08:53:12.000Z,38.42
2018-02-22T08:55:40.355Z,39.95
2018-02-22T08:58:08.631Z,47.62
2018-02-22T09:00:37.813Z,45.90
2018-02-22T09:03:06.078Z,75.43
2018-02-22T09:05:34.363Z,44.00
2018-02-22T09:08:02.600Z,39.00
2018-02-22T09:10:30.892Z,36.83
2018-02-22T09:12:59.291Z,44.53
2018-02-22T09:15:27.494Z,35.08
2018-02-22T09:17:55.790Z,44.30
2018-02-22T09:20:24.118Z,40.25
2018-02-22T09:22:52.501Z,38.38
2018-02-22T09:25:20.729Z,45.08
2018-02-22T09:27:49.046Z,37.20
2018-02-22T09:30:17.428Z,37.85
2018-02-22T09:32:45.660Z,42.78
2018-02-22T09:35:13.975Z,41.30
2018-02-22T09:37:42.247Z,39.47
2018-02-22T09:40:10.730Z,39.35
2018-02-22T09:42:39.006Z,36.30
2018-02-22T09:45:07.240Z,31.87
2018-02-22T09:47:35.512Z,40.50
2018-02-22T09:50:03.836Z,41.13
2018-02-22T09:52:32.173Z,40.97
2018-02-22T09:55:00.502Z,37.50
2018-02-22T09:57:28.761Z,44.63
2018-02-22T09:59:57.046Z,34.05
2018-02-22T10:02:25.423Z,38.78
2018-02-22T10:04:53.665Z,38.23
2018-02-22T10:07:21.916Z,39.35
2018-02-22T10:09:50.196Z,38.53
2018-02-22T10:12:18.450Z,37.60
2018-02-22T10:14:47.543Z,37.58
2018-02-22T10:17:16.606Z,35.15
2018-02-22T10:19:44.944Z,33.93
2018-02-22T10:22:13.259Z,41.15
2018-02-22T10:24:42.366Z,39.15
2018-02-22T10:27:10.595Z,37.25
2018-02-22T10:29:38.907Z,37.92
2018-02-22T10:32:07.146Z,36.38
2018-02-22T10:34:35.461Z,39.42
2018-02-22T10:37:03.698Z,39.92
2018-02-22T10:39:31.920Z,33.92
2018-02-22T10:42:00.970Z,31.73
2018-02-22T10:44:29.247Z,41.28
2018-02-22T10:46:57.548Z,35.65
2018-02-22T10:49:25.904Z,36.07
2018-02-22T10:51:54.140Z,37.97
2018-02-22T10:54:23.162Z,33.00
2018-02-22T10:56:51.469Z,41.80
2018-02-22T10:59:19.734Z,37.10
2018-02-22T11:01:53.559Z,43.13
2018-02-22T11:04:21.840Z,41.55
2018-02-22T11:06:50.855Z,37.40
2018-02-22T11:09:19.221Z,37.05
2018-02-22T11:11:48.330Z,39.35
2018-02-22T11:14:17.386Z,37.28
2018-02-22T11:16:45.614Z,42.20
2018-02-22T11:19:13.945Z,34.40
2018-02-22T11:21:42.218Z,36.88
2018-02-22T11:24:10.428Z,43.97
2018-02-22T11:26:38.693Z,38.75
2018-02-22T11:29:07.708Z,40.12
2018-02-22T11:31:36.033Z,41.50
2018-02-22T11:34:04.308Z,35.90
2018-02-22T11:36:32.582Z,37.65
2018-02-22T11:39:00.963Z,43.10
2018-02-22T11:41:29.242Z,41.78
2018-02-22T11:43:57.516Z,35.03
2018-02-22T11:46:25.751Z,40.25
2018-02-22T11:48:54.068Z,39.45
2018-02-22T11:51:23.159Z,39.00
2018-02-22T11:53:51.412Z,40.25
2018-02-22T11:56:19.712Z,36.97
2018-02-22T11:58:48.096Z,36.42
2018-02-22T12:01:16.369Z,41.58
2018-02-22T12:03:44.621Z,38.30
2018-02-22T12:06:12.917Z,40.72
2018-02-22T12:08:41.197Z,37.20
2018-02-22T12:11:09.430Z,40.88
2018-02-22T12:13:37.782Z,39.17
2018-02-22T12:16:06.038Z,45.75
2018-02-22T12:18:35.102Z,44.58
2018-02-22T12:21:03.352Z,39.83
2018-02-22T12:23:31.660Z,38.40
2018-02-22T12:25:59.877Z,42.40
2018-02-22T12:28:28.130Z,45.17
2018-02-22T12:30:56.402Z,38.30
2018-02-22T12:33:25.282Z,45.95
2018-02-22T12:35:54.321Z,44.47
2018-02-22T12:38:22.556Z,39.15
2018-02-22T12:40:50.801Z,41.90
2018-02-22T12:43:19.090Z,38.38
2018-02-22T12:45:47.367Z,41.33
2018-02-22T12:48:15.752Z,38.30
2018-02-22T12:50:44.022Z,41.00
2018-02-22T12:53:12.291Z,37.55
2018-02-22T12:55:40.571Z,37.42
2018-02-22T12:58:08.849Z,42.88
2018-02-22T13:00:37.123Z,41.05
2018-02-22T13:03:05.337Z,43.17
2018-02-22T13:05:33.711Z,39.63
2018-02-22T13:08:01.928Z,38.45
2018-02-22T13:10:30.330Z,41.13
2018-02-22T13:12:58.616Z,40.28
2018-02-22T13:15:26.980Z,38.65
2018-02-22T13:17:55.201Z,34.75
2018-02-22T13:20:23.432Z,36.67
2018-02-22T13:22:51.710Z,33.63
2018-02-22T13:25:19.983Z,37.45
2018-02-22T13:27:48.239Z,34.60
2018-02-22T13:30:16.493Z,38.40
2018-02-22T13:35:45.716Z,36.97
2018-02-22T13:38:26.107Z,33.45
2018-02-22T13:40:54.331Z,35.05
2018-02-22T13:43:22.667Z,34.47
2018-02-22T13:45:50.878Z,41.22
2018-02-22T13:48:19.222Z,38.40
2018-02-22T13:50:59.365Z,36.43
2018-02-22T13:53:27.638Z,32.00
2018-02-22T13:55:55.916Z,35.60
2018-02-22T13:58:24.291Z,36.78
2018-02-22T14:01:04.348Z,36.47
2018-02-22T14:03:32.600Z,43.47
2018-02-22T14:06:00.856Z,39.47
2018-02-22T14:08:41.055Z,33.60
2018-02-22T14:11:09.307Z,34.60
2018-02-22T14:13:37.608Z,34.65
2018-02-22T14:16:05.848Z,37.20
2018-02-22T14:18:34.908Z,37.72
2018-02-22T14:21:03.244Z,38.10
2018-02-22T14:23:31.472Z,38.50
2018-02-22T14:25:59.801Z,34.08
2018-02-22T14:28:28.069Z,34.50
2018-02-22T14:30:56.346Z,38.30
2018-02-22T14:33:25.241Z,33.85
2018-02-22T14:35:53.514Z,39.15
2018-02-22T14:38:21.788Z,36.65
2018-02-22T14:40:50.071Z,38.67
2018-02-22T14:43:18.337Z,35.95
2018-02-22T14:45:46.717Z,36.40
2018-02-22T14:48:14.967Z,37.55
2018-02-22T14:50:43.258Z,33.90
2018-02-22T14:53:11.531Z,40.35
2018-02-22T14:55:39.817Z,38.60
2018-02-22T14:58:08.086Z,35.45
2018-02-22T15:00:36.472Z,38.80
2018-02-22T15:03:04.747Z,28.87
2018-02-22T15:05:32.980Z,37.50
2018-02-22T15:08:01.469Z,34.97
2018-02-22T15:10:29.697Z,34.78
2018-02-22T15:12:58.873Z,30.67
2018-02-22T15:15:27.169Z,33.20
2018-02-22T15:17:55.528Z,30.50
2018-02-22T15:20:24.726Z,32.70
2018-02-22T15:22:52.962Z,32.72
2018-02-22T15:25:21.278Z,35.25
2018-02-22T15:27:49.496Z,32.75
2018-02-22T15:30:17.825Z,38.45
2018-02-22T15:32:46.068Z,35.92
2018-02-22T15:35:14.319Z,36.35
2018-02-22T15:37:43.380Z,34.78
2018-02-22T15:40:11.653Z,35.58
2018-02-22T15:42:40.028Z,35.10
2018-02-22T15:45:09.222Z,33.83
2018-02-22T15:47:37.501Z,30.15
2018-02-22T15:50:05.712Z,31.60
2018-02-22T15:52:34.074Z,37.67
2018-02-22T15:55:02.346Z,40.65
2018-02-22T15:57:31.418Z,32.97
2018-02-22T15:59:59.696Z,36.22
2018-02-22T16:02:27.914Z,32.28
2018-02-22T16:04:56.347Z,38.50
2018-02-22T16:07:24.601Z,38.10
2018-02-22T16:09:52.896Z,34.08
2018-02-22T16:12:21.153Z,37.30
2018-02-22T16:14:49.430Z,32.60
2018-02-22T16:17:17.834Z,39.28
2018-02-22T16:19:46.102Z,34.40
2018-02-22T16:22:14.482Z,29.98
2018-02-22T16:24:42.866Z,30.85
2018-02-22T16:27:11.147Z,37.88
2018-02-22T16:29:39.627Z,34.33
2018-02-22T16:32:07.863Z,33.10
2018-02-22T16:34:36.270Z,35.67
2018-02-22T16:37:04.542Z,30.70
2018-02-22T16:39:32.810Z,35.55
2018-02-22T16:42:01.093Z,32.97
2018-02-22T16:44:29.367Z,33.03
2018-02-22T16:46:57.609Z,31.48
2018-02-22T16:49:25.833Z,35.87
2018-02-22T16:51:54.911Z,34.03
2018-02-22T16:54:23.137Z,37.75
2018-02-22T16:56:51.572Z,34.40
2018-02-22T16:59:19.850Z,33.33
2018-02-22T17:01:48.117Z,30.12
2018-02-22T17:04:16.493Z,34.30
2018-02-22T17:06:44.789Z,34.92
2018-02-22T17:09:13.147Z,35.63
2018-02-22T17:11:41.374Z,37.20
2018-02-22T17:14:09.649Z,38.53
2018-02-22T17:16:37.892Z,34.17
2018-02-22T17:19:06.174Z,35.10
2018-02-22T17:21:34.418Z,34.92
2018-02-22T17:24:03.457Z,36.30
2018-02-22T17:26:37.527Z,30.95
2018-02-22T17:29:11.370Z,37.03
2018-02-22T17:31:45.891Z,31.00
2018-02-22T17:34:14.241Z,32.37
2018-02-22T17:36:46.876Z,30.73
2018-02-22T17:39:32.880Z,29.30
2018-02-22T17:42:01.892Z,34.33
2018-02-22T17:44:30.145Z,31.95
2018-02-22T17:46:58.423Z,39.05
2018-02-22T17:49:26.730Z,36.35
2018-02-22T17:51:55.216Z,35.22
2018-02-22T17:54:23.445Z,36.25
2018-02-22T17:56:51.708Z,35.80
2018-02-22T17:59:19.988Z,37.72
2018-02-22T18:01:49.042Z,36.22
2018-02-22T18:04:18.157Z,32.40
2018-02-22T18:06:47.222Z,35.05
2018-02-22T18:09:15.591Z,29.98
2018-02-22T18:11:43.819Z,37.75
2018-02-22T18:14:12.149Z,34.55
2018-02-22T18:16:40.386Z,33.40
2018-02-22T18:19:08.714Z,32.75
2018-02-22T18:21:37.068Z,34.92
2018-02-22T18:24:06.181Z,35.25
2018-02-22T18:26:34.544Z,37.20
2018-02-22T18:29:02.919Z,36.42
2018-02-22T18:31:31.189Z,35.72
2018-02-22T18:33:59.481Z,37.17
2018-02-22T18:36:27.678Z,34.42
2018-02-22T18:39:02.324Z,31.23
2018-02-22T18:41:36.267Z,36.97
2018-02-22T18:47:03.764Z,39.35
2018-02-22T18:49:32.133Z,35.00
2018-02-22T18:52:00.403Z,32.42
2018-02-22T18:54:29.506Z,35.67
2018-02-22T18:56:57.849Z,35.45
2018-02-22T18:59:26.154Z,36.65
2018-02-22T19:01:54.500Z,39.22
2018-02-22T19:04:22.906Z,38.13
2018-02-22T19:06:51.289Z,44.45
2018-02-22T19:09:19.674Z,40.40
2018-02-22T19:11:47.949Z,44.42
2018-02-22T19:14:16.245Z,35.30
2018-02-22T19:16:44.596Z,38.83
2018-02-22T19:19:12.816Z,37.37
2018-02-22T19:21:41.135Z,40.92
2018-02-22T19:24:09.637Z,42.53
2018-02-22T19:26:37.910Z,35.47
2018-02-22T19:29:06.175Z,36.55
2018-02-22T19:31:34.423Z,40.78
2018-02-22T19:34:02.739Z,36.95
2018-02-22T19:36:31.005Z,38.78
2018-02-22T19:38:59.387Z,36.40
2018-02-22T19:41:27.788Z,34.72
2018-02-22T19:43:56.113Z,38.47
2018-02-22T19:46:25.232Z,38.92
2018-02-22T19:48:53.609Z,38.63
2018-02-22T19:51:21.883Z,38.10
2018-02-22T19:53:50.166Z,38.35
2018-02-22T19:56:18.454Z,43.60
2018-02-22T19:58:47.540Z,45.95
2018-02-22T20:01:15.799Z,35.13
2018-02-22T20:03:44.081Z,39.90
2018-02-22T20:06:12.392Z,41.53
2018-02-22T20:08:41.431Z,40.75
2018-02-22T20:11:09.743Z,40.10
2018-02-22T20:13:38.001Z,39.92
2018-02-22T20:16:06.278Z,36.60
2018-02-22T20:18:34.559Z,40.00
2018-02-22T20:21:02.854Z,40.60
2018-02-22T20:23:31.936Z,36.95
2018-02-22T20:26:01.129Z,38.25
2018-02-22T20:28:29.510Z,38.60
2018-02-22T20:30:57.862Z,38.85
2018-02-22T20:33:26.255Z,41.05
2018-02-22T20:35:54.519Z,36.13
2018-02-22T20:38:22.915Z,35.03
2018-02-22T20:40:51.288Z,33.95
2018-02-22T20:43:19.679Z,37.05
2018-02-22T20:45:48.069Z,35.03
2018-02-22T20:48:16.317Z,34.47
2018-02-22T20:50:45.513Z,37.60
2018-02-22T20:53:13.790Z,39.67
2018-02-22T20:55:42.677Z,34.45
2018-02-22T20:58:10.918Z,38.17
2018-02-22T21:00:39.237Z,38.58
2018-02-22T21:03:07.618Z,35.83
2018-02-22T21:05:35.944Z,39.07
2018-02-22T21:08:04.202Z,33.83
2018-02-22T21:10:32.553Z,40.28
2018-02-22T21:13:00.904Z,38.00
2018-02-22T21:15:29.298Z,35.20
2018-02-22T21:17:57.681Z,37.22
2018-02-22T21:20:25.947Z,35.30
2018-02-22T21:22:54.223Z,36.72
2018-02-22T21:25:22.512Z,27.85
2018-02-22T21:27:50.797Z,31.05
2018-02-22T21:30:19.051Z,32.63
2018-02-22T21:32:47.434Z,33.13
2018-02-22T21:35:15.922Z,30.62
2018-02-22T21:37:44.182Z,32.05
2018-02-22T21:40:12.457Z,32.75
2018-02-22T21:42:40.713Z,33.60
2018-02-22T21:45:08.971Z,36.97
2018-02-22T21:47:37.255Z,32.03
2018-02-22T21:50:05.566Z,32.43
2018-02-22T21:52:33.910Z,32.08
2018-02-22T21:55:02.215Z,37.75
2018-02-22T21:57:31.311Z,31.75
2018-02-22T22:00:00.547Z,40.12
2018-02-22T22:02:28.834Z,34.67
2018-02-22T22:04:57.132Z,29.70
2018-02-22T22:07:25.382Z,32.75
2018-02-22T22:09:53.811Z,29.23
2018-02-22T22:12:22.049Z,31.02
2018-02-22T22:14:50.370Z,36.90
2018-02-22T22:17:18.761Z,31.87
2018-02-22T22:19:47.801Z,37.17
2018-02-22T22:22:16.138Z,29.60
2018-02-22T22:24:44.389Z,30.95
2018-02-22T22:27:12.735Z,34.30
2018-02-22T22:29:40.966Z,34.88
2018-02-22T22:32:09.420Z,37.50
2018-02-22T22:34:37.701Z,41.13
2018-02-22T22:37:06.077Z,32.83
2018-02-22T22:39:34.331Z,39.55
2018-02-22T22:42:02.625Z,39.00
2018-02-22T22:44:30.840Z,32.22
2018-02-22T22:46:59.864Z,36.17
2018-02-22T22:49:28.165Z,32.93
2018-02-22T22:51:56.407Z,37.45
2018-02-22T22:54:24.645Z,36.90
2018-02-22T22:56:53.708Z,37.15
2018-02-22T22:59:21.935Z,32.88
2018-02-22T23:01:50.265Z,35.05
2018-02-22T23:04:18.645Z,34.40
2018-02-22T23:06:47.017Z,36.78
2018-02-22T23:09:15.289Z,32.63
2018-02-22T23:11:43.508Z,42.90
2018-02-22T23:14:11.841Z,35.42
2018-02-22T23:16:40.225Z,36.20
2018-02-22T23:19:08.494Z,32.57
2018-02-22T23:21:36.729Z,36.72
2018-02-22T23:24:04.996Z,35.50
2018-02-22T23:26:33.322Z,45.15
2018-02-22T23:29:01.598Z,39.72
2018-02-22T23:31:29.891Z,40.20
2018-02-22T23:33:59.076Z,37.03
2018-02-22T23:36:27.362Z,37.58
2018-02-22T23:38:56.136Z,36.88
2018-02-22T23:44:21.412Z,39.42
2018-02-22T23:46:49.702Z,37.60
2018-02-22T23:49:17.966Z,34.53
2018-02-22T23:51:46.284Z,38.22
2018-02-22T23:54:14.509Z,35.15
2018-02-22T23:56:42.837Z,36.83
2018-02-22T23:59:11.315Z,36.40
